createdAt,value
2022-09-16T00:01:14.556Z,1011.44
2022-09-16T00:06:21.675Z,1011.40
2022-09-16T00:11:28.848Z,1011.31
2022-09-16T00:16:36.191Z,1011.17
2022-09-16T00:21:43.270Z,1011.18
2022-09-16T00:26:50.480Z,1011.38
2022-09-16T00:31:57.647Z,1011.43
2022-09-16T00:37:04.783Z,1011.50
2022-09-16T00:42:11.987Z,1011.56
2022-09-16T00:47:19.253Z,1011.51
2022-09-16T00:52:26.411Z,1011.52
2022-09-16T00:57:33.653Z,1011.56
2022-09-16T01:02:40.930Z,1011.62
2022-09-16T01:07:48.131Z,1011.77
2022-09-16T01:12:55.355Z,1011.74
2022-09-16T01:18:02.548Z,1011.89
2022-09-16T01:23:09.725Z,1011.96
2022-09-16T01:28:16.968Z,1011.87
2022-09-16T01:33:24.155Z,1011.88
2022-09-16T01:38:31.305Z,1011.83
2022-09-16T01:43:38.463Z,1011.87
2022-09-16T01:48:46.496Z,1011.87
2022-09-16T01:53:52.940Z,1011.83
2022-09-16T01:59:00.068Z,1011.85
2022-09-16T02:04:07.222Z,1011.99
2022-09-16T02:09:14.358Z,1012.01
2022-09-16T02:14:21.596Z,1012.06
2022-09-16T02:19:28.837Z,1011.96
2022-09-16T02:24:36.089Z,1011.93
2022-09-16T02:29:43.291Z,1011.74
2022-09-16T02:34:50.521Z,1011.77
2022-09-16T02:39:57.847Z,1011.73
2022-09-16T02:45:04.948Z,1011.74
2022-09-16T02:50:12.538Z,1011.75
2022-09-16T02:55:19.737Z,1011.73
2022-09-16T03:00:26.999Z,1011.72
2022-09-16T03:05:34.272Z,1011.59
2022-09-16T03:10:41.562Z,1011.44
2022-09-16T03:15:48.858Z,1011.41
2022-09-16T03:20:56.073Z,1011.36
2022-09-16T03:26:03.243Z,1011.35
2022-09-16T03:31:10.582Z,1011.34
2022-09-16T03:36:17.767Z,1011.19
2022-09-16T03:41:24.976Z,1011.23
2022-09-16T03:46:32.230Z,1011.23
2022-09-16T03:51:39.464Z,1011.14
2022-09-16T03:56:46.646Z,1011.09
2022-09-16T04:01:53.871Z,1011.07
2022-09-16T04:07:01.117Z,1010.94
2022-09-16T04:12:08.294Z,1010.89
2022-09-16T04:17:15.509Z,1010.90
2022-09-16T04:22:22.735Z,1010.84
2022-09-16T04:27:29.919Z,1010.79
2022-09-16T04:32:37.079Z,1010.72
2022-09-16T04:37:44.297Z,1010.69
2022-09-16T04:42:51.534Z,1010.71
2022-09-16T04:47:58.745Z,1010.62
2022-09-16T04:53:05.950Z,1010.72
2022-09-16T04:58:13.157Z,1010.68
2022-09-16T05:03:20.443Z,1010.69
2022-09-16T05:08:27.612Z,1010.69
2022-09-16T05:13:34.860Z,1010.73
2022-09-16T05:18:42.071Z,1010.69
2022-09-16T05:23:49.639Z,1010.72
2022-09-16T05:28:56.483Z,1010.79
2022-09-16T05:34:03.668Z,1010.78
2022-09-16T05:39:22.782Z,1010.73
2022-09-16T05:44:18.143Z,1010.69
2022-09-16T05:49:25.382Z,1010.69
2022-09-16T05:54:32.851Z,1010.67
2022-09-16T05:59:39.936Z,1010.72
2022-09-16T06:04:47.141Z,1010.77
2022-09-16T06:09:54.512Z,1010.73
2022-09-16T06:15:01.634Z,1010.68
2022-09-16T06:20:08.861Z,1010.70
2022-09-16T06:25:16.233Z,1010.66
2022-09-16T06:30:24.667Z,1010.64
2022-09-16T06:35:30.569Z,1010.66
2022-09-16T06:40:37.966Z,1010.68
2022-09-16T06:45:45.188Z,1010.70
2022-09-16T06:50:52.380Z,1010.59
2022-09-16T06:55:59.710Z,1010.61
2022-09-16T07:01:06.918Z,1010.57
2022-09-16T07:06:14.254Z,1010.58
2022-09-16T07:11:21.647Z,1010.69
2022-09-16T07:16:28.798Z,1010.72
2022-09-16T07:21:36.028Z,1010.59
2022-09-16T07:26:43.355Z,1010.65
2022-09-16T07:31:50.399Z,1010.67
2022-09-16T07:36:57.618Z,1010.77
2022-09-16T07:42:06.279Z,1010.83
2022-09-16T07:47:12.051Z,1010.89
2022-09-16T07:52:19.228Z,1010.86
2022-09-16T07:57:26.552Z,1010.85
2022-09-16T08:02:33.739Z,1010.88
2022-09-16T08:07:40.896Z,1010.93
2022-09-16T08:12:48.220Z,1010.85
2022-09-16T08:17:55.355Z,1010.86
2022-09-16T08:23:02.583Z,1010.99
2022-09-16T08:28:09.894Z,1011.12
2022-09-16T08:33:16.924Z,1011.16
2022-09-16T08:38:24.104Z,1011.11
2022-09-16T08:43:31.513Z,1011.25
2022-09-16T08:48:38.590Z,1011.24
2022-09-16T08:53:45.804Z,1011.18
2022-09-16T08:58:53.140Z,1011.12
2022-09-16T09:04:00.209Z,1011.10
2022-09-16T09:09:07.471Z,1011.01
2022-09-16T09:14:14.899Z,1011.03
2022-09-16T09:19:22.040Z,1010.98
2022-09-16T09:24:29.229Z,1010.98
2022-09-16T09:29:36.590Z,1010.97
2022-09-16T09:34:43.643Z,1010.87
2022-09-16T09:39:50.932Z,1010.87
2022-09-16T09:45:01.421Z,1010.85
2022-09-16T09:50:05.254Z,1010.94
2022-09-16T09:55:16.126Z,1010.88
2022-09-16T10:00:19.906Z,1010.94
2022-09-16T10:05:27.037Z,1010.96
2022-09-16T10:10:34.296Z,1011.00
2022-09-16T10:15:41.691Z,1011.09
2022-09-16T10:20:48.813Z,1011.00
2022-09-16T10:25:56.033Z,1010.97
2022-09-16T10:31:03.567Z,1010.87
2022-09-16T10:36:10.598Z,1010.82
2022-09-16T10:41:17.865Z,1010.73
2022-09-16T10:46:25.297Z,1010.73
2022-09-16T10:51:32.307Z,1010.70
2022-09-16T10:56:39.522Z,1010.60
2022-09-16T11:01:48.147Z,1010.50
2022-09-16T11:06:53.937Z,1010.41
2022-09-16T11:12:01.163Z,1010.32
2022-09-16T11:17:08.620Z,1010.35
2022-09-16T11:22:15.696Z,1010.42
2022-09-16T11:27:23.019Z,1010.49
2022-09-16T11:32:30.429Z,1010.48
2022-09-16T11:37:37.536Z,1010.50
2022-09-16T11:42:45.810Z,1010.57
2022-09-16T11:47:52.166Z,1010.52
2022-09-16T11:53:04.446Z,1010.50
2022-09-16T11:58:06.500Z,1010.59
2022-09-16T12:03:14.039Z,1010.76
2022-09-16T12:08:21.031Z,1011.01
2022-09-16T12:13:28.939Z,1011.20
2022-09-16T12:18:36.341Z,1011.34
2022-09-16T12:23:43.462Z,1011.42
2022-09-16T12:28:50.678Z,1011.46
2022-09-16T12:33:58.052Z,1011.42
2022-09-16T12:39:05.145Z,1011.47
2022-09-16T12:44:30.440Z,1011.51
2022-09-16T12:49:19.809Z,1011.51
2022-09-16T12:54:26.962Z,1011.52
2022-09-16T12:59:34.215Z,1011.54
2022-09-16T13:04:42.655Z,1011.48
2022-09-16T13:09:49.739Z,1011.47
2022-09-16T13:14:56.940Z,1011.47
2022-09-16T13:20:04.336Z,1011.44
2022-09-16T13:25:11.401Z,1011.48
2022-09-16T13:30:18.645Z,1011.47
2022-09-16T13:35:26.098Z,1011.40
2022-09-16T13:40:33.296Z,1011.37
2022-09-16T13:45:40.482Z,1011.41
2022-09-16T13:50:47.857Z,1011.48
2022-09-16T13:55:54.985Z,1011.59
2022-09-16T14:01:02.193Z,1011.73
2022-09-16T14:06:09.614Z,1011.76
2022-09-16T14:11:16.698Z,1011.84
2022-09-16T14:16:24.015Z,1011.89
2022-09-16T14:21:31.288Z,1011.81
2022-09-16T14:26:38.428Z,1011.89
2022-09-16T14:31:45.679Z,1011.94
2022-09-16T14:36:53.063Z,1011.91
2022-09-16T14:42:00.136Z,1011.78
2022-09-16T14:47:10.019Z,1011.88
2022-09-16T14:52:14.763Z,1011.71
2022-09-16T14:57:21.857Z,1011.70
2022-09-16T15:02:29.131Z,1011.68
2022-09-16T15:07:46.052Z,1011.68
2022-09-16T15:12:43.581Z,1011.74
2022-09-16T15:17:53.289Z,1011.76
2022-09-16T15:22:58.165Z,1011.76
2022-09-16T15:28:05.319Z,1011.77
2022-09-16T15:33:12.571Z,1011.94
2022-09-16T15:38:19.902Z,1011.83
2022-09-16T15:43:27.035Z,1011.66
2022-09-16T15:48:34.301Z,1011.72
2022-09-16T15:53:41.640Z,1011.78
2022-09-16T15:58:48.701Z,1011.75
2022-09-16T16:03:55.950Z,1011.75
2022-09-16T16:09:03.258Z,1011.79
2022-09-16T16:14:10.316Z,1011.77
2022-09-16T16:19:17.547Z,1011.89
2022-09-16T16:24:24.943Z,1011.97
2022-09-16T16:29:32.021Z,1011.97
2022-09-16T16:34:39.235Z,1011.87
2022-09-16T16:39:46.628Z,1011.89
2022-09-16T16:44:53.705Z,1011.87
2022-09-16T16:50:00.905Z,1011.94
2022-09-16T16:55:08.312Z,1011.97
2022-09-16T17:00:15.421Z,1012.05
2022-09-16T17:05:22.657Z,1011.96
2022-09-16T17:10:29.984Z,1011.88
2022-09-16T17:15:37.081Z,1011.91
2022-09-16T17:20:44.317Z,1011.98
2022-09-16T17:25:51.714Z,1011.96
2022-09-16T17:30:58.921Z,1012.02
2022-09-16T17:36:06.096Z,1011.98
2022-09-16T17:41:13.454Z,1011.98
2022-09-16T17:46:20.616Z,1012.07
2022-09-16T17:51:27.792Z,1012.12
2022-09-16T17:56:35.164Z,1012.30
2022-09-16T18:01:42.242Z,1012.18
2022-09-16T18:06:49.437Z,1012.39
2022-09-16T18:11:56.791Z,1012.21
2022-09-16T18:17:03.914Z,1012.35
2022-09-16T18:22:11.051Z,1012.45
2022-09-16T18:27:18.685Z,1012.67
2022-09-16T18:32:25.910Z,1012.79
2022-09-16T18:37:33.187Z,1012.83
2022-09-16T18:42:40.900Z,1012.84
2022-09-16T18:47:48.206Z,1012.85
2022-09-16T18:52:55.467Z,1012.79
2022-09-16T18:58:02.859Z,1012.77
2022-09-16T19:03:09.940Z,1012.89
2022-09-16T19:08:17.181Z,1012.88
2022-09-16T19:13:24.558Z,1012.83
2022-09-16T19:18:31.641Z,1012.83
2022-09-16T19:23:38.853Z,1012.90
2022-09-16T19:28:46.190Z,1012.84
2022-09-16T19:33:53.250Z,1012.89
2022-09-16T19:39:00.434Z,1012.94
2022-09-16T19:44:07.738Z,1012.92
2022-09-16T19:49:14.858Z,1012.89
2022-09-16T19:54:22.055Z,1012.90
2022-09-16T19:59:29.416Z,1013.04
2022-09-16T20:04:36.544Z,1013.01
2022-09-16T20:09:43.795Z,1012.94
2022-09-16T20:14:51.109Z,1013.01
2022-09-16T20:19:58.207Z,1012.99
2022-09-16T20:25:22.062Z,1013.02
2022-09-16T20:30:12.881Z,1013.05
2022-09-16T20:35:19.981Z,1013.02
2022-09-16T20:40:27.320Z,1013.01
2022-09-16T20:45:34.601Z,1013.00
2022-09-16T20:50:41.677Z,1012.96
2022-09-16T20:55:48.950Z,1012.99
2022-09-16T21:00:56.664Z,1012.94
2022-09-16T21:06:03.654Z,1012.83
2022-09-16T21:11:11.813Z,1012.77
2022-09-16T21:16:19.192Z,1012.72
2022-09-16T21:21:26.267Z,1012.66
2022-09-16T21:26:33.504Z,1012.76
2022-09-16T21:31:41.112Z,1012.86
2022-09-16T21:36:47.910Z,1012.99
2022-09-16T21:41:55.107Z,1013.09
2022-09-16T21:47:02.405Z,1013.13
2022-09-16T21:52:09.511Z,1013.17
2022-09-16T21:57:17.105Z,1013.24
2022-09-16T22:02:28.464Z,1013.39
2022-09-16T22:07:31.447Z,1013.51
2022-09-16T22:12:38.636Z,1013.43
2022-09-16T22:17:48.881Z,1013.35
2022-09-16T22:22:53.682Z,1013.28
2022-09-16T22:28:00.816Z,1013.30
2022-09-16T22:33:08.119Z,1013.24
2022-09-16T22:38:15.198Z,1013.20
2022-09-16T22:43:22.434Z,1013.18
2022-09-16T22:48:29.818Z,1013.12
2022-09-16T22:53:36.977Z,1013.15
2022-09-16T22:58:44.239Z,1013.25
2022-09-16T23:03:51.582Z,1013.27
2022-09-16T23:08:58.746Z,1013.43
2022-09-16T23:14:05.888Z,1013.45
2022-09-16T23:19:13.225Z,1013.48
2022-09-16T23:24:20.341Z,1013.48
2022-09-16T23:29:27.558Z,1013.49
2022-09-16T23:34:34.866Z,1013.47
2022-09-16T23:39:41.985Z,1013.49
2022-09-16T23:44:49.146Z,1013.51
2022-09-16T23:49:56.443Z,1013.48
2022-09-16T23:55:04.059Z,1013.44
